sensor_id;sensor_type;location;lat;lon;timestamp;temperature;humidity
7048;DHT22;3565;53.254;10.352;2022-08-14T00:14:29;22.40;1.00
7048;DHT22;3565;53.254;10.352;2022-08-14T00:16:58;22.30;1.00
7048;DHT22;3565;53.254;10.352;2022-08-14T00:19:28;22.40;1.00
7048;DHT22;3565;53.254;10.352;2022-08-14T00:21:57;22.40;1.00
7048;DHT22;3565;53.254;10.352;2022-08-14T00:24:27;22.40;1.00
7048;DHT22;3565;53.254;10.352;2022-08-14T00:26:56;22.40;1.00
7048;DHT22;3565;53.254;10.352;2022-08-14T00:29:26;22.40;1.00
7048;DHT22;3565;53.254;10.352;2022-08-14T00:31:57;22.40;1.00
7048;DHT22;3565;53.254;10.352;2022-08-14T00:34:26;22.40;1.00
7048;DHT22;3565;53.254;10.352;2022-08-14T00:36:55;22.40;1.00
7048;DHT22;3565;53.254;10.352;2022-08-14T00:39:24;22.40;1.00
7048;DHT22;3565;53.254;10.352;2022-08-14T00:44:37;22.40;1.00
7048;DHT22;3565;53.254;10.352;2022-08-14T00:47:06;22.40;1.00
7048;DHT22;3565;53.254;10.352;2022-08-14T00:49:36;22.50;1.00
7048;DHT22;3565;53.254;10.352;2022-08-14T00:52:05;22.40;1.00
7048;DHT22;3565;53.254;10.352;2022-08-14T00:54:35;22.30;1.00
7048;DHT22;3565;53.254;10.352;2022-08-14T00:57:05;22.30;1.00
7048;DHT22;3565;53.254;10.352;2022-08-14T01:02:28;22.10;1.00
7048;DHT22;3565;53.254;10.352;2022-08-14T01:04:58;22.20;1.00
7048;DHT22;3565;53.254;10.352;2022-08-14T01:07:29;22.20;1.00
7048;DHT22;3565;53.254;10.352;2022-08-14T01:10:00;22.20;1.00
7048;DHT22;3565;53.254;10.352;2022-08-14T01:12:31;22.20;1.00
7048;DHT22;3565;53.254;10.352;2022-08-14T01:15:02;22.20;1.00
7048;DHT22;3565;53.254;10.352;2022-08-14T01:17:32;22.10;1.00
7048;DHT22;3565;53.254;10.352;2022-08-14T01:20:20;22.10;1.00
7048;DHT22;3565;53.254;10.352;2022-08-14T01:23:08;22.20;1.00
7048;DHT22;3565;53.254;10.352;2022-08-14T01:25:38;22.10;1.00
7048;DHT22;3565;53.254;10.352;2022-08-14T01:28:09;22.10;1.00
7048;DHT22;3565;53.254;10.352;2022-08-14T01:30:40;22.00;1.00
7048;DHT22;3565;53.254;10.352;2022-08-14T01:33:10;21.90;1.00
7048;DHT22;3565;53.254;10.352;2022-08-14T01:35:40;21.90;1.00
7048;DHT22;3565;53.254;10.352;2022-08-14T01:38:12;21.90;1.00
7048;DHT22;3565;53.254;10.352;2022-08-14T01:43:45;21.70;1.00
7048;DHT22;3565;53.254;10.352;2022-08-14T01:46:17;21.70;1.00
7048;DHT22;3565;53.254;10.352;2022-08-14T01:48:51;21.70;1.00
7048;DHT22;3565;53.254;10.352;2022-08-14T01:51:22;21.70;1.00
7048;DHT22;3565;53.254;10.352;2022-08-14T01:53:54;21.70;1.00
7048;DHT22;3565;53.254;10.352;2022-08-14T01:56:26;21.70;1.00
7048;DHT22;3565;53.254;10.352;2022-08-14T01:59:03;21.70;1.00
7048;DHT22;3565;53.254;10.352;2022-08-14T02:01:33;21.60;1.00
7048;DHT22;3565;53.254;10.352;2022-08-14T02:04:04;21.50;1.00
7048;DHT22;3565;53.254;10.352;2022-08-14T02:06:33;21.60;1.00
7048;DHT22;3565;53.254;10.352;2022-08-14T02:09:05;21.60;1.00
7048;DHT22;3565;53.254;10.352;2022-08-14T02:11:34;21.50;1.00
7048;DHT22;3565;53.254;10.352;2022-08-14T02:14:07;21.40;1.00
7048;DHT22;3565;53.254;10.352;2022-08-14T02:16:39;21.40;1.00
7048;DHT22;3565;53.254;10.352;2022-08-14T02:19:12;21.40;1.00
7048;DHT22;3565;53.254;10.352;2022-08-14T02:21:45;21.30;1.00
7048;DHT22;3565;53.254;10.352;2022-08-14T02:24:15;21.30;1.00
7048;DHT22;3565;53.254;10.352;2022-08-14T02:26:45;21.20;1.00
7048;DHT22;3565;53.254;10.352;2022-08-14T02:29:19;21.10;1.00
7048;DHT22;3565;53.254;10.352;2022-08-14T02:31:51;21.00;1.00
7048;DHT22;3565;53.254;10.352;2022-08-14T02:34:23;20.90;1.00
7048;DHT22;3565;53.254;10.352;2022-08-14T02:36:56;20.90;1.00
7048;DHT22;3565;53.254;10.352;2022-08-14T02:39:27;20.80;1.00
7048;DHT22;3565;53.254;10.352;2022-08-14T02:41:57;20.70;1.00
7048;DHT22;3565;53.254;10.352;2022-08-14T02:44:27;20.60;1.00
7048;DHT22;3565;53.254;10.352;2022-08-14T02:46:56;20.50;1.00
7048;DHT22;3565;53.254;10.352;2022-08-14T02:49:25;20.40;1.00
7048;DHT22;3565;53.254;10.352;2022-08-14T02:51:58;20.30;1.00
7048;DHT22;3565;53.254;10.352;2022-08-14T02:54:27;20.20;1.00
7048;DHT22;3565;53.254;10.352;2022-08-14T02:56:58;20.20;1.00
7048;DHT22;3565;53.254;10.352;2022-08-14T02:59:28;20.10;1.00
7048;DHT22;3565;53.254;10.352;2022-08-14T03:01:59;20.10;1.00
7048;DHT22;3565;53.254;10.352;2022-08-14T03:04:29;20.10;1.00
7048;DHT22;3565;53.254;10.352;2022-08-14T03:06:59;20.00;5.70
7048;DHT22;3565;53.254;10.352;2022-08-14T03:09:28;20.10;1.10
7048;DHT22;3565;53.254;10.352;2022-08-14T03:11:58;20.10;1.00
7048;DHT22;3565;53.254;10.352;2022-08-14T03:14:29;20.10;5.40
7048;DHT22;3565;53.254;10.352;2022-08-14T03:17:00;20.10;1.00
7048;DHT22;3565;53.254;10.352;2022-08-14T03:19:29;20.10;1.00
7048;DHT22;3565;53.254;10.352;2022-08-14T03:21:59;20.10;1.00
7048;DHT22;3565;53.254;10.352;2022-08-14T03:24:28;20.00;1.00
7048;DHT22;3565;53.254;10.352;2022-08-14T03:26:58;20.00;1.00
7048;DHT22;3565;53.254;10.352;2022-08-14T03:29:27;20.00;2.00
7048;DHT22;3565;53.254;10.352;2022-08-14T03:31:56;20.00;1.00
7048;DHT22;3565;53.254;10.352;2022-08-14T03:34:26;20.00;2.80
7048;DHT22;3565;53.254;10.352;2022-08-14T03:36:55;19.90;14.50
7048;DHT22;3565;53.254;10.352;2022-08-14T03:39:26;19.90;8.50
7048;DHT22;3565;53.254;10.352;2022-08-14T03:41:56;19.90;16.20
7048;DHT22;3565;53.254;10.352;2022-08-14T03:44:25;19.90;25.80
7048;DHT22;3565;53.254;10.352;2022-08-14T03:46:56;19.90;17.30
7048;DHT22;3565;53.254;10.352;2022-08-14T03:49:25;19.80;16.40
7048;DHT22;3565;53.254;10.352;2022-08-14T03:51:54;19.80;6.90
7048;DHT22;3565;53.254;10.352;2022-08-14T03:54:24;19.80;22.40
7048;DHT22;3565;53.254;10.352;2022-08-14T03:56:53;19.80;2.60
7048;DHT22;3565;53.254;10.352;2022-08-14T03:59:24;19.80;3.10
7048;DHT22;3565;53.254;10.352;2022-08-14T04:01:54;19.70;28.50
7048;DHT22;3565;53.254;10.352;2022-08-14T04:04:24;19.70;58.30
7048;DHT22;3565;53.254;10.352;2022-08-14T04:06:53;19.70;46.20
7048;DHT22;3565;53.254;10.352;2022-08-14T04:12:04;19.60;1.00
7048;DHT22;3565;53.254;10.352;2022-08-14T04:14:33;19.60;50.80
7048;DHT22;3565;53.254;10.352;2022-08-14T04:17:03;19.60;58.20
7048;DHT22;3565;53.254;10.352;2022-08-14T04:19:32;19.60;58.20
7048;DHT22;3565;53.254;10.352;2022-08-14T04:22:03;19.60;86.10
7048;DHT22;3565;53.254;10.352;2022-08-14T04:24:33;19.50;99.00
7048;DHT22;3565;53.254;10.352;2022-08-14T04:27:03;19.50;99.90
7048;DHT22;3565;53.254;10.352;2022-08-14T04:29:37;19.50;99.90
7048;DHT22;3565;53.254;10.352;2022-08-14T04:32:08;19.50;99.90
7048;DHT22;3565;53.254;10.352;2022-08-14T04:37:28;19.60;99.90
7048;DHT22;3565;53.254;10.352;2022-08-14T04:40:14;19.80;73.00
7048;DHT22;3565;53.254;10.352;2022-08-14T04:43:02;19.80;31.30
7048;DHT22;3565;53.254;10.352;2022-08-14T04:45:50;19.90;36.80
7048;DHT22;3565;53.254;10.352;2022-08-14T04:48:19;20.00;2.50
7048;DHT22;3565;53.254;10.352;2022-08-14T04:50:50;19.90;28.20
7048;DHT22;3565;53.254;10.352;2022-08-14T04:53:21;19.90;45.40
7048;DHT22;3565;53.254;10.352;2022-08-14T04:55:51;20.00;27.70
7048;DHT22;3565;53.254;10.352;2022-08-14T04:58:22;20.10;24.30
7048;DHT22;3565;53.254;10.352;2022-08-14T05:00:54;20.20;46.00
7048;DHT22;3565;53.254;10.352;2022-08-14T05:03:27;20.20;24.60
7048;DHT22;3565;53.254;10.352;2022-08-14T05:05:58;20.30;13.50
7048;DHT22;3565;53.254;10.352;2022-08-14T05:08:28;20.30;20.80
7048;DHT22;3565;53.254;10.352;2022-08-14T05:11:00;20.40;1.00
7048;DHT22;3565;53.254;10.352;2022-08-14T05:13:31;20.50;1.00
7048;DHT22;3565;53.254;10.352;2022-08-14T05:16:02;20.50;1.00
7048;DHT22;3565;53.254;10.352;2022-08-14T05:18:33;20.50;11.80
7048;DHT22;3565;53.254;10.352;2022-08-14T05:21:06;20.60;12.20
7048;DHT22;3565;53.254;10.352;2022-08-14T05:23:38;20.70;1.00
7048;DHT22;3565;53.254;10.352;2022-08-14T05:26:07;20.70;1.00
7048;DHT22;3565;53.254;10.352;2022-08-14T05:28:44;20.90;1.00
7048;DHT22;3565;53.254;10.352;2022-08-14T05:31:14;21.10;1.00
7048;DHT22;3565;53.254;10.352;2022-08-14T05:33:45;21.10;1.00
7048;DHT22;3565;53.254;10.352;2022-08-14T05:36:14;21.10;1.00
7048;DHT22;3565;53.254;10.352;2022-08-14T05:38:46;21.30;1.00
7048;DHT22;3565;53.254;10.352;2022-08-14T05:41:17;21.30;1.00
7048;DHT22;3565;53.254;10.352;2022-08-14T05:43:47;21.20;1.00
7048;DHT22;3565;53.254;10.352;2022-08-14T05:46:18;21.50;1.00
7048;DHT22;3565;53.254;10.352;2022-08-14T05:48:51;21.80;1.00
7048;DHT22;3565;53.254;10.352;2022-08-14T05:51:21;22.00;1.00
7048;DHT22;3565;53.254;10.352;2022-08-14T05:53:51;22.20;1.00
7048;DHT22;3565;53.254;10.352;2022-08-14T05:56:21;22.30;1.00
7048;DHT22;3565;53.254;10.352;2022-08-14T05:58:51;22.50;1.00
7048;DHT22;3565;53.254;10.352;2022-08-14T06:01:21;22.60;1.00
7048;DHT22;3565;53.254;10.352;2022-08-14T06:03:51;22.40;1.00
7048;DHT22;3565;53.254;10.352;2022-08-14T06:06:20;22.60;1.00
7048;DHT22;3565;53.254;10.352;2022-08-14T06:08:49;23.10;1.00
7048;DHT22;3565;53.254;10.352;2022-08-14T06:11:19;23.80;1.00
7048;DHT22;3565;53.254;10.352;2022-08-14T06:13:49;24.40;1.00
7048;DHT22;3565;53.254;10.352;2022-08-14T06:16:18;25.00;1.00
7048;DHT22;3565;53.254;10.352;2022-08-14T06:18:48;25.10;1.00
7048;DHT22;3565;53.254;10.352;2022-08-14T06:21:18;24.80;1.00
7048;DHT22;3565;53.254;10.352;2022-08-14T06:23:48;25.10;1.00
7048;DHT22;3565;53.254;10.352;2022-08-14T06:26:17;25.70;1.00
7048;DHT22;3565;53.254;10.352;2022-08-14T06:28:47;25.80;1.00
7048;DHT22;3565;53.254;10.352;2022-08-14T06:31:16;25.50;1.00
7048;DHT22;3565;53.254;10.352;2022-08-14T06:33:45;25.50;1.00
7048;DHT22;3565;53.254;10.352;2022-08-14T06:36:17;25.70;1.00
7048;DHT22;3565;53.254;10.352;2022-08-14T06:38:47;26.40;1.00
7048;DHT22;3565;53.254;10.352;2022-08-14T06:41:18;26.70;1.00
7048;DHT22;3565;53.254;10.352;2022-08-14T06:43:47;27.20;1.00
7048;DHT22;3565;53.254;10.352;2022-08-14T06:46:17;27.40;1.00
7048;DHT22;3565;53.254;10.352;2022-08-14T06:48:48;25.70;1.00
7048;DHT22;3565;53.254;10.352;2022-08-14T06:54:05;26.10;1.00
7048;DHT22;3565;53.254;10.352;2022-08-14T06:56:34;26.40;1.00
7048;DHT22;3565;53.254;10.352;2022-08-14T06:59:04;26.70;1.00
7048;DHT22;3565;53.254;10.352;2022-08-14T07:01:34;26.00;1.00
7048;DHT22;3565;53.254;10.352;2022-08-14T07:04:21;26.10;1.00
7048;DHT22;3565;53.254;10.352;2022-08-14T07:07:08;26.00;1.00
7048;DHT22;3565;53.254;10.352;2022-08-14T07:09:37;26.30;1.00
7048;DHT22;3565;53.254;10.352;2022-08-14T07:12:07;27.20;1.00
7048;DHT22;3565;53.254;10.352;2022-08-14T07:14:36;27.20;1.00
7048;DHT22;3565;53.254;10.352;2022-08-14T07:17:06;28.20;1.00
7048;DHT22;3565;53.254;10.352;2022-08-14T07:19:35;29.10;1.00
7048;DHT22;3565;53.254;10.352;2022-08-14T07:22:04;29.10;1.00
7048;DHT22;3565;53.254;10.352;2022-08-14T07:24:34;29.10;1.00
7048;DHT22;3565;53.254;10.352;2022-08-14T07:27:04;28.30;1.00
7048;DHT22;3565;53.254;10.352;2022-08-14T07:29:33;27.60;1.00
7048;DHT22;3565;53.254;10.352;2022-08-14T07:32:04;27.30;1.00
7048;DHT22;3565;53.254;10.352;2022-08-14T07:34:33;27.30;1.00
7048;DHT22;3565;53.254;10.352;2022-08-14T07:37:03;28.10;1.00
7048;DHT22;3565;53.254;10.352;2022-08-14T07:39:33;28.60;1.00
7048;DHT22;3565;53.254;10.352;2022-08-14T07:42:03;29.30;1.00
7048;DHT22;3565;53.254;10.352;2022-08-14T07:44:32;29.60;1.00
7048;DHT22;3565;53.254;10.352;2022-08-14T07:47:01;30.80;1.00
7048;DHT22;3565;53.254;10.352;2022-08-14T07:49:31;30.70;1.00
7048;DHT22;3565;53.254;10.352;2022-08-14T07:52:02;30.40;1.00
7048;DHT22;3565;53.254;10.352;2022-08-14T07:54:31;31.80;1.00
7048;DHT22;3565;53.254;10.352;2022-08-14T07:57:02;32.10;1.00
7048;DHT22;3565;53.254;10.352;2022-08-14T07:59:32;32.60;1.00
7048;DHT22;3565;53.254;10.352;2022-08-14T08:04:43;32.30;1.00
7048;DHT22;3565;53.254;10.352;2022-08-14T08:07:31;31.00;1.00
7048;DHT22;3565;53.254;10.352;2022-08-14T08:10:04;31.30;1.00
7048;DHT22;3565;53.254;10.352;2022-08-14T08:12:35;29.90;1.00
7048;DHT22;3565;53.254;10.352;2022-08-14T08:15:06;29.60;1.00
7048;DHT22;3565;53.254;10.352;2022-08-14T08:17:36;29.60;1.00
7048;DHT22;3565;53.254;10.352;2022-08-14T08:20:11;30.40;1.00
7048;DHT22;3565;53.254;10.352;2022-08-14T08:22:38;31.30;1.00
7048;DHT22;3565;53.254;10.352;2022-08-14T08:25:09;31.00;1.00
7048;DHT22;3565;53.254;10.352;2022-08-14T08:27:39;32.20;1.00
7048;DHT22;3565;53.254;10.352;2022-08-14T08:30:11;32.80;1.00
7048;DHT22;3565;53.254;10.352;2022-08-14T08:32:41;33.10;1.00
7048;DHT22;3565;53.254;10.352;2022-08-14T08:35:18;33.40;1.00
7048;DHT22;3565;53.254;10.352;2022-08-14T08:37:49;33.00;1.00
7048;DHT22;3565;53.254;10.352;2022-08-14T08:40:26;33.70;1.00
7048;DHT22;3565;53.254;10.352;2022-08-14T08:42:55;33.40;1.00
7048;DHT22;3565;53.254;10.352;2022-08-14T08:45:25;33.00;1.00
7048;DHT22;3565;53.254;10.352;2022-08-14T08:47:54;33.20;1.00
7048;DHT22;3565;53.254;10.352;2022-08-14T08:50:25;33.20;1.00
7048;DHT22;3565;53.254;10.352;2022-08-14T08:52:58;34.50;1.00
7048;DHT22;3565;53.254;10.352;2022-08-14T08:55:29;34.50;1.00
7048;DHT22;3565;53.254;10.352;2022-08-14T08:58:01;33.90;1.00
7048;DHT22;3565;53.254;10.352;2022-08-14T09:00:32;33.50;1.00
7048;DHT22;3565;53.254;10.352;2022-08-14T09:03:04;33.90;1.00
7048;DHT22;3565;53.254;10.352;2022-08-14T09:05:35;33.80;1.00
7048;DHT22;3565;53.254;10.352;2022-08-14T09:11:00;34.90;1.00
7048;DHT22;3565;53.254;10.352;2022-08-14T09:13:29;34.80;1.00
7048;DHT22;3565;53.254;10.352;2022-08-14T09:15:59;34.80;1.00
7048;DHT22;3565;53.254;10.352;2022-08-14T09:21:11;34.30;1.00
7048;DHT22;3565;53.254;10.352;2022-08-14T09:23:41;34.10;1.00
7048;DHT22;3565;53.254;10.352;2022-08-14T09:26:11;34.30;1.00
7048;DHT22;3565;53.254;10.352;2022-08-14T09:28:41;34.70;1.00
7048;DHT22;3565;53.254;10.352;2022-08-14T09:31:11;35.70;1.00
7048;DHT22;3565;53.254;10.352;2022-08-14T09:33:48;33.80;1.00
7048;DHT22;3565;53.254;10.352;2022-08-14T09:39:22;34.80;1.00
7048;DHT22;3565;53.254;10.352;2022-08-14T09:47:16;33.10;1.00
7048;DHT22;3565;53.254;10.352;2022-08-14T09:49:45;32.10;1.00
7048;DHT22;3565;53.254;10.352;2022-08-14T09:52:17;33.30;1.00
7048;DHT22;3565;53.254;10.352;2022-08-14T09:54:48;31.50;1.00
7048;DHT22;3565;53.254;10.352;2022-08-14T09:57:25;31.80;1.00
7048;DHT22;3565;53.254;10.352;2022-08-14T09:59:55;31.60;1.00
7048;DHT22;3565;53.254;10.352;2022-08-14T10:02:26;32.70;1.00
7048;DHT22;3565;53.254;10.352;2022-08-14T10:05:06;32.60;1.00
7048;DHT22;3565;53.254;10.352;2022-08-14T10:10:31;30.80;1.00
7048;DHT22;3565;53.254;10.352;2022-08-14T10:13:01;31.40;1.00
7048;DHT22;3565;53.254;10.352;2022-08-14T10:15:32;31.40;1.00
7048;DHT22;3565;53.254;10.352;2022-08-14T10:18:09;31.00;1.00
7048;DHT22;3565;53.254;10.352;2022-08-14T10:20:41;30.30;1.00
7048;DHT22;3565;53.254;10.352;2022-08-14T10:23:12;30.40;1.00
7048;DHT22;3565;53.254;10.352;2022-08-14T10:25:42;30.80;1.00
7048;DHT22;3565;53.254;10.352;2022-08-14T10:28:12;30.80;1.00
7048;DHT22;3565;53.254;10.352;2022-08-14T10:30:44;31.00;1.00
7048;DHT22;3565;53.254;10.352;2022-08-14T10:33:26;31.20;1.00
7048;DHT22;3565;53.254;10.352;2022-08-14T10:35:57;30.80;1.00
7048;DHT22;3565;53.254;10.352;2022-08-14T10:38:28;30.80;1.00
7048;DHT22;3565;53.254;10.352;2022-08-14T10:41:10;31.20;1.00
7048;DHT22;3565;53.254;10.352;2022-08-14T10:43:41;30.20;1.00
7048;DHT22;3565;53.254;10.352;2022-08-14T10:46:15;30.20;1.00
7048;DHT22;3565;53.254;10.352;2022-08-14T10:48:57;30.70;1.00
7048;DHT22;3565;53.254;10.352;2022-08-14T10:51:29;30.90;1.00
7048;DHT22;3565;53.254;10.352;2022-08-14T10:54:04;30.80;1.00
7048;DHT22;3565;53.254;10.352;2022-08-14T10:56:34;30.80;1.00
7048;DHT22;3565;53.254;10.352;2022-08-14T10:59:04;30.00;1.00
7048;DHT22;3565;53.254;10.352;2022-08-14T11:01:36;30.30;1.00
7048;DHT22;3565;53.254;10.352;2022-08-14T11:04:06;30.60;1.00
7048;DHT22;3565;53.254;10.352;2022-08-14T11:06:36;30.70;1.00
7048;DHT22;3565;53.254;10.352;2022-08-14T11:09:11;31.10;1.00
7048;DHT22;3565;53.254;10.352;2022-08-14T11:11:43;30.90;1.00
7048;DHT22;3565;53.254;10.352;2022-08-14T11:14:15;31.10;1.00
7048;DHT22;3565;53.254;10.352;2022-08-14T11:16:42;31.10;1.00
7048;DHT22;3565;53.254;10.352;2022-08-14T11:19:11;31.20;1.00
7048;DHT22;3565;53.254;10.352;2022-08-14T11:21:42;31.20;1.00
7048;DHT22;3565;53.254;10.352;2022-08-14T11:24:13;31.20;1.00
7048;DHT22;3565;53.254;10.352;2022-08-14T11:26:44;31.40;1.00
7048;DHT22;3565;53.254;10.352;2022-08-14T11:29:13;31.40;1.00
7048;DHT22;3565;53.254;10.352;2022-08-14T11:31:43;31.20;1.00
7048;DHT22;3565;53.254;10.352;2022-08-14T11:34:12;31.40;1.00
7048;DHT22;3565;53.254;10.352;2022-08-14T11:36:41;32.20;1.00
7048;DHT22;3565;53.254;10.352;2022-08-14T11:39:17;32.60;1.00
7048;DHT22;3565;53.254;10.352;2022-08-14T11:41:46;32.60;1.00
7048;DHT22;3565;53.254;10.352;2022-08-14T11:44:15;32.70;1.00
7048;DHT22;3565;53.254;10.352;2022-08-14T11:46:44;32.70;1.00
7048;DHT22;3565;53.254;10.352;2022-08-14T11:49:13;34.50;1.00
7048;DHT22;3565;53.254;10.352;2022-08-14T11:51:45;35.80;1.00
7048;DHT22;3565;53.254;10.352;2022-08-14T11:54:16;35.50;1.00
7048;DHT22;3565;53.254;10.352;2022-08-14T11:56:45;35.40;1.00
7048;DHT22;3565;53.254;10.352;2022-08-14T11:59:17;35.50;1.00
7048;DHT22;3565;53.254;10.352;2022-08-14T12:01:49;35.50;1.00
7048;DHT22;3565;53.254;10.352;2022-08-14T12:04:19;37.00;1.00
7048;DHT22;3565;53.254;10.352;2022-08-14T12:06:50;36.40;1.00
7048;DHT22;3565;53.254;10.352;2022-08-14T12:09:31;36.90;1.00
7048;DHT22;3565;53.254;10.352;2022-08-14T12:12:01;37.20;1.00
7048;DHT22;3565;53.254;10.352;2022-08-14T12:14:31;36.80;1.00
7048;DHT22;3565;53.254;10.352;2022-08-14T12:17:02;36.80;1.00
7048;DHT22;3565;53.254;10.352;2022-08-14T12:19:44;35.00;1.00
7048;DHT22;3565;53.254;10.352;2022-08-14T12:22:13;34.70;1.00
7048;DHT22;3565;53.254;10.352;2022-08-14T12:24:43;34.80;1.00
7048;DHT22;3565;53.254;10.352;2022-08-14T12:27:12;33.50;1.00
7048;DHT22;3565;53.254;10.352;2022-08-14T12:29:51;33.50;1.00
7048;DHT22;3565;53.254;10.352;2022-08-14T12:32:20;33.50;1.00
7048;DHT22;3565;53.254;10.352;2022-08-14T12:34:54;33.80;1.00
7048;DHT22;3565;53.254;10.352;2022-08-14T12:37:29;33.90;1.00
7048;DHT22;3565;53.254;10.352;2022-08-14T12:40:10;34.40;1.00
7048;DHT22;3565;53.254;10.352;2022-08-14T12:42:39;34.10;1.00
7048;DHT22;3565;53.254;10.352;2022-08-14T12:45:10;32.70;1.00
7048;DHT22;3565;53.254;10.352;2022-08-14T12:47:40;32.70;1.00
7048;DHT22;3565;53.254;10.352;2022-08-14T12:50:10;32.60;1.00
7048;DHT22;3565;53.254;10.352;2022-08-14T12:52:42;32.50;1.00
7048;DHT22;3565;53.254;10.352;2022-08-14T12:55:14;33.10;1.00
7048;DHT22;3565;53.254;10.352;2022-08-14T12:57:45;33.10;1.00
7048;DHT22;3565;53.254;10.352;2022-08-14T13:00:17;34.10;1.00
7048;DHT22;3565;53.254;10.352;2022-08-14T13:02:49;34.40;1.00
7048;DHT22;3565;53.254;10.352;2022-08-14T13:05:20;33.50;1.00
7048;DHT22;3565;53.254;10.352;2022-08-14T13:07:50;33.30;1.00
7048;DHT22;3565;53.254;10.352;2022-08-14T13:10:21;33.30;1.00
7048;DHT22;3565;53.254;10.352;2022-08-14T13:12:53;33.40;1.00
7048;DHT22;3565;53.254;10.352;2022-08-14T13:15:21;33.90;1.00
7048;DHT22;3565;53.254;10.352;2022-08-14T13:17:52;34.50;1.00
7048;DHT22;3565;53.254;10.352;2022-08-14T13:20:24;34.80;1.00
7048;DHT22;3565;53.254;10.352;2022-08-14T13:22:53;34.40;1.00
7048;DHT22;3565;53.254;10.352;2022-08-14T13:25:24;35.50;1.00
7048;DHT22;3565;53.254;10.352;2022-08-14T13:27:55;36.10;1.00
7048;DHT22;3565;53.254;10.352;2022-08-14T13:30:25;36.50;1.00
7048;DHT22;3565;53.254;10.352;2022-08-14T13:32:55;36.10;1.00
7048;DHT22;3565;53.254;10.352;2022-08-14T13:35:25;35.20;1.00
7048;DHT22;3565;53.254;10.352;2022-08-14T13:37:54;34.60;1.00
7048;DHT22;3565;53.254;10.352;2022-08-14T13:40:24;34.30;1.00
7048;DHT22;3565;53.254;10.352;2022-08-14T13:42:55;35.40;1.00
7048;DHT22;3565;53.254;10.352;2022-08-14T13:45:24;34.80;1.00
7048;DHT22;3565;53.254;10.352;2022-08-14T13:47:53;34.90;1.00
7048;DHT22;3565;53.254;10.352;2022-08-14T13:50:22;35.20;1.00
7048;DHT22;3565;53.254;10.352;2022-08-14T13:52:52;35.20;1.00
7048;DHT22;3565;53.254;10.352;2022-08-14T13:55:24;34.30;1.00
7048;DHT22;3565;53.254;10.352;2022-08-14T13:57:55;34.40;1.00
7048;DHT22;3565;53.254;10.352;2022-08-14T14:00:25;34.40;1.00
7048;DHT22;3565;53.254;10.352;2022-08-14T14:02:54;34.80;1.00
7048;DHT22;3565;53.254;10.352;2022-08-14T14:05:25;35.30;1.00
7048;DHT22;3565;53.254;10.352;2022-08-14T14:07:56;35.10;1.00
7048;DHT22;3565;53.254;10.352;2022-08-14T14:10:27;34.90;1.00
7048;DHT22;3565;53.254;10.352;2022-08-14T14:12:55;34.60;1.00
7048;DHT22;3565;53.254;10.352;2022-08-14T14:15:24;35.70;1.00
7048;DHT22;3565;53.254;10.352;2022-08-14T14:17:53;35.60;1.00
7048;DHT22;3565;53.254;10.352;2022-08-14T14:20:23;36.50;1.00
7048;DHT22;3565;53.254;10.352;2022-08-14T14:22:52;35.50;1.00
7048;DHT22;3565;53.254;10.352;2022-08-14T14:25:21;35.40;1.00
7048;DHT22;3565;53.254;10.352;2022-08-14T14:27:50;36.20;1.00
7048;DHT22;3565;53.254;10.352;2022-08-14T14:30:19;35.00;1.00
7048;DHT22;3565;53.254;10.352;2022-08-14T14:32:49;34.90;1.00
7048;DHT22;3565;53.254;10.352;2022-08-14T14:35:20;34.60;1.00
7048;DHT22;3565;53.254;10.352;2022-08-14T14:37:49;34.90;1.00
7048;DHT22;3565;53.254;10.352;2022-08-14T14:40:19;34.70;1.00
7048;DHT22;3565;53.254;10.352;2022-08-14T14:42:50;35.70;1.00
7048;DHT22;3565;53.254;10.352;2022-08-14T14:45:20;35.80;1.00
7048;DHT22;3565;53.254;10.352;2022-08-14T14:47:52;35.70;1.00
7048;DHT22;3565;53.254;10.352;2022-08-14T14:50:21;35.90;1.00
7048;DHT22;3565;53.254;10.352;2022-08-14T14:52:50;36.70;1.00
7048;DHT22;3565;53.254;10.352;2022-08-14T14:55:20;36.80;1.00
7048;DHT22;3565;53.254;10.352;2022-08-14T14:57:49;36.90;1.00
7048;DHT22;3565;53.254;10.352;2022-08-14T15:00:19;36.90;1.00
7048;DHT22;3565;53.254;10.352;2022-08-14T15:02:50;36.60;1.00
7048;DHT22;3565;53.254;10.352;2022-08-14T15:05:20;36.40;1.00
7048;DHT22;3565;53.254;10.352;2022-08-14T15:07:50;36.20;1.00
7048;DHT22;3565;53.254;10.352;2022-08-14T15:10:21;36.00;1.00
7048;DHT22;3565;53.254;10.352;2022-08-14T15:12:51;36.90;1.00
7048;DHT22;3565;53.254;10.352;2022-08-14T15:15:20;36.60;1.00
7048;DHT22;3565;53.254;10.352;2022-08-14T15:17:49;35.60;1.00
7048;DHT22;3565;53.254;10.352;2022-08-14T15:20:18;33.90;1.00
7048;DHT22;3565;53.254;10.352;2022-08-14T15:22:48;33.70;1.00
7048;DHT22;3565;53.254;10.352;2022-08-14T15:25:17;33.70;1.00
7048;DHT22;3565;53.254;10.352;2022-08-14T15:27:46;33.70;1.00
7048;DHT22;3565;53.254;10.352;2022-08-14T15:30:17;33.60;1.00
7048;DHT22;3565;53.254;10.352;2022-08-14T15:32:46;34.10;1.00
7048;DHT22;3565;53.254;10.352;2022-08-14T15:35:15;34.20;1.00
7048;DHT22;3565;53.254;10.352;2022-08-14T15:37:44;34.40;1.00
7048;DHT22;3565;53.254;10.352;2022-08-14T15:40:13;34.80;1.00
7048;DHT22;3565;53.254;10.352;2022-08-14T15:42:42;33.80;1.00
7048;DHT22;3565;53.254;10.352;2022-08-14T15:45:11;34.00;1.00
7048;DHT22;3565;53.254;10.352;2022-08-14T15:47:43;34.50;1.00
7048;DHT22;3565;53.254;10.352;2022-08-14T15:50:12;34.20;1.00
7048;DHT22;3565;53.254;10.352;2022-08-14T15:52:41;34.20;1.00
7048;DHT22;3565;53.254;10.352;2022-08-14T15:55:11;33.90;1.00
7048;DHT22;3565;53.254;10.352;2022-08-14T15:57:40;33.80;1.00
7048;DHT22;3565;53.254;10.352;2022-08-14T16:00:11;34.00;1.00
7048;DHT22;3565;53.254;10.352;2022-08-14T16:02:58;34.00;1.00
7048;DHT22;3565;53.254;10.352;2022-08-14T16:05:27;33.90;1.00
7048;DHT22;3565;53.254;10.352;2022-08-14T16:07:56;33.60;1.00
7048;DHT22;3565;53.254;10.352;2022-08-14T16:10:25;33.70;1.00
7048;DHT22;3565;53.254;10.352;2022-08-14T16:12:54;33.80;1.00
7048;DHT22;3565;53.254;10.352;2022-08-14T16:15:23;33.30;1.00
7048;DHT22;3565;53.254;10.352;2022-08-14T16:17:52;33.40;1.00
7048;DHT22;3565;53.254;10.352;2022-08-14T16:20:22;33.50;1.00
7048;DHT22;3565;53.254;10.352;2022-08-14T16:22:51;33.50;1.00
7048;DHT22;3565;53.254;10.352;2022-08-14T16:25:21;33.50;1.00
7048;DHT22;3565;53.254;10.352;2022-08-14T16:27:50;33.40;1.00
7048;DHT22;3565;53.254;10.352;2022-08-14T16:30:19;33.50;1.00
7048;DHT22;3565;53.254;10.352;2022-08-14T16:32:47;32.90;1.00
7048;DHT22;3565;53.254;10.352;2022-08-14T16:35:16;32.60;1.00
7048;DHT22;3565;53.254;10.352;2022-08-14T16:37:45;32.70;1.00
7048;DHT22;3565;53.254;10.352;2022-08-14T16:40:14;32.90;1.00
7048;DHT22;3565;53.254;10.352;2022-08-14T16:42:43;32.60;1.00
7048;DHT22;3565;53.254;10.352;2022-08-14T16:45:12;32.60;1.00
7048;DHT22;3565;53.254;10.352;2022-08-14T16:47:41;32.60;1.00
7048;DHT22;3565;53.254;10.352;2022-08-14T16:50:10;32.50;1.00
7048;DHT22;3565;53.254;10.352;2022-08-14T16:52:40;32.50;1.00
7048;DHT22;3565;53.254;10.352;2022-08-14T16:55:11;32.60;1.00
7048;DHT22;3565;53.254;10.352;2022-08-14T16:57:48;32.20;1.00
7048;DHT22;3565;53.254;10.352;2022-08-14T17:03:01;32.00;1.00
7048;DHT22;3565;53.254;10.352;2022-08-14T17:05:33;32.10;1.00
7048;DHT22;3565;53.254;10.352;2022-08-14T17:08:12;32.10;1.00
7048;DHT22;3565;53.254;10.352;2022-08-14T17:11:02;32.00;1.00
7048;DHT22;3565;53.254;10.352;2022-08-14T17:13:32;31.90;1.00
7048;DHT22;3565;53.254;10.352;2022-08-14T17:16:06;31.70;1.00